sensor_id;sensor_type;location;lat;lon;timestamp;temperature;humidity
72380;SHT30;60354;47.798;12.472;2023-04-01T00:00:28;8.52;69.85
72380;SHT30;60354;47.798;12.472;2023-04-01T00:02:54;8.52;68.46
72380;SHT30;60354;47.798;12.472;2023-04-01T00:05:20;8.57;68.56
72380;SHT30;60354;47.798;12.472;2023-04-01T00:07:46;8.70;67.70
72380;SHT30;60354;47.798;12.472;2023-04-01T00:10:13;8.76;68.17
72380;SHT30;60354;47.798;12.472;2023-04-01T00:12:39;8.80;69.53
72380;SHT30;60354;47.798;12.472;2023-04-01T00:15:07;8.81;69.76
72380;SHT30;60354;47.798;12.472;2023-04-01T00:17:33;8.74;71.47
72380;SHT30;60354;47.798;12.472;2023-04-01T00:19:59;8.76;69.99
72380;SHT30;60354;47.798;12.472;2023-04-01T00:22:25;8.70;70.76
72380;SHT30;60354;47.798;12.472;2023-04-01T00:24:52;8.73;70.64
72380;SHT30;60354;47.798;12.472;2023-04-01T00:27:18;8.67;71.21
72380;SHT30;60354;47.798;12.472;2023-04-01T00:29:45;8.67;71.34
72380;SHT30;60354;47.798;12.472;2023-04-01T00:32:11;8.56;72.95
72380;SHT30;60354;47.798;12.472;2023-04-01T00:34:37;8.52;73.34
72380;SHT30;60354;47.798;12.472;2023-04-01T00:37:03;8.48;72.84
72380;SHT30;60354;47.798;12.472;2023-04-01T00:39:30;8.45;72.58
72380;SHT30;60354;47.798;12.472;2023-04-01T00:41:56;8.46;72.87
72380;SHT30;60354;47.798;12.472;2023-04-01T00:44:28;8.43;73.15
72380;SHT30;60354;47.798;12.472;2023-04-01T00:46:55;8.42;73.03
72380;SHT30;60354;47.798;12.472;2023-04-01T00:49:25;8.43;73.45
72380;SHT30;60354;47.798;12.472;2023-04-01T00:51:54;8.42;72.87
72380;SHT30;60354;47.798;12.472;2023-04-01T00:54:21;8.35;74.45
72380;SHT30;60354;47.798;12.472;2023-04-01T00:56:50;8.29;75.03
72380;SHT30;60354;47.798;12.472;2023-04-01T00:59:30;8.14;75.34
72380;SHT30;60354;47.798;12.472;2023-04-01T01:01:57;8.12;75.35
72380;SHT30;60354;47.798;12.472;2023-04-01T01:12:39;7.93;77.27
72380;SHT30;60354;47.798;12.472;2023-04-01T01:17:48;7.75;80.08
72380;SHT30;60354;47.798;12.472;2023-04-01T01:37:42;7.63;79.25
72380;SHT30;60354;47.798;12.472;2023-04-01T01:40:10;7.67;77.47
72380;SHT30;60354;47.798;12.472;2023-04-01T01:42:40;7.70;77.34
72380;SHT30;60354;47.798;12.472;2023-04-01T01:45:08;7.77;77.20
72380;SHT30;60354;47.798;12.472;2023-04-01T01:47:35;7.74;77.85
72380;SHT30;60354;47.798;12.472;2023-04-01T01:50:03;7.74;77.51
72380;SHT30;60354;47.798;12.472;2023-04-01T01:52:30;7.70;78.40
72380;SHT30;60354;47.798;12.472;2023-04-01T01:54:57;7.74;77.28
72380;SHT30;60354;47.798;12.472;2023-04-01T01:57:31;7.80;78.24
72380;SHT30;60354;47.798;12.472;2023-04-01T02:00:04;7.77;77.19
72380;SHT30;60354;47.798;12.472;2023-04-01T02:02:43;7.83;76.58
72380;SHT30;60354;47.798;12.472;2023-04-01T02:05:10;7.80;77.45
72380;SHT30;60354;47.798;12.472;2023-04-01T02:07:37;7.80;78.27
72380;SHT30;60354;47.798;12.472;2023-04-01T02:10:05;7.73;79.72
72380;SHT30;60354;47.798;12.472;2023-04-01T02:12:33;7.60;79.52
72380;SHT30;60354;47.798;12.472;2023-04-01T02:15:08;7.54;80.21
72380;SHT30;60354;47.798;12.472;2023-04-01T02:17:39;7.53;79.17
72380;SHT30;60354;47.798;12.472;2023-04-01T02:22:40;7.57;80.03
72380;SHT30;60354;47.798;12.472;2023-04-01T02:25:13;7.56;80.56
72380;SHT30;60354;47.798;12.472;2023-04-01T02:27:40;7.56;78.69
72380;SHT30;60354;47.798;12.472;2023-04-01T02:30:07;7.49;80.78
72380;SHT30;60354;47.798;12.472;2023-04-01T02:32:33;7.44;82.02
72380;SHT30;60354;47.798;12.472;2023-04-01T02:35:00;7.37;83.11
72380;SHT30;60354;47.798;12.472;2023-04-01T02:37:28;7.50;80.16
72380;SHT30;60354;47.798;12.472;2023-04-01T02:39:54;7.50;80.56
72380;SHT30;60354;47.798;12.472;2023-04-01T02:42:19;7.46;80.13
72380;SHT30;60354;47.798;12.472;2023-04-01T02:44:45;7.49;80.47
72380;SHT30;60354;47.798;12.472;2023-04-01T02:47:10;7.50;81.36
72380;SHT30;60354;47.798;12.472;2023-04-01T02:49:36;7.47;82.06
72380;SHT30;60354;47.798;12.472;2023-04-01T02:52:01;7.52;82.56
72380;SHT30;60354;47.798;12.472;2023-04-01T02:54:27;7.46;82.36
72380;SHT30;60354;47.798;12.472;2023-04-01T02:56:52;7.49;82.56
72380;SHT30;60354;47.798;12.472;2023-04-01T02:59:18;7.47;81.72
72380;SHT30;60354;47.798;12.472;2023-04-01T03:01:43;7.44;82.89
72380;SHT30;60354;47.798;12.472;2023-04-01T03:04:09;7.37;84.26
72380;SHT30;60354;47.798;12.472;2023-04-01T03:06:34;7.34;85.26
72380;SHT30;60354;47.798;12.472;2023-04-01T03:09:00;7.18;86.15
72380;SHT30;60354;47.798;12.472;2023-04-01T03:11:25;7.03;86.84
72380;SHT30;60354;47.798;12.472;2023-04-01T03:13:51;7.09;85.71
72380;SHT30;60354;47.798;12.472;2023-04-01T03:16:17;7.05;86.31
72380;SHT30;60354;47.798;12.472;2023-04-01T03:18:42;6.98;85.65
72380;SHT30;60354;47.798;12.472;2023-04-01T03:21:20;7.13;82.68
72380;SHT30;60354;47.798;12.472;2023-04-01T03:23:46;7.15;82.96
72380;SHT30;60354;47.798;12.472;2023-04-01T03:26:11;7.20;82.97
72380;SHT30;60354;47.798;12.472;2023-04-01T03:28:37;7.32;82.36
72380;SHT30;60354;47.798;12.472;2023-04-01T03:31:03;7.32;81.74
72380;SHT30;60354;47.798;12.472;2023-04-01T03:33:36;7.37;82.83
72380;SHT30;60354;47.798;12.472;2023-04-01T03:36:01;7.36;82.47
72380;SHT30;60354;47.798;12.472;2023-04-01T03:38:28;7.32;82.64
72380;SHT30;60354;47.798;12.472;2023-04-01T03:40:53;7.50;80.10
72380;SHT30;60354;47.798;12.472;2023-04-01T03:43:19;7.49;81.66
72380;SHT30;60354;47.798;12.472;2023-04-01T03:45:47;7.46;82.00
72380;SHT30;60354;47.798;12.472;2023-04-01T03:48:13;7.37;82.94
72380;SHT30;60354;47.798;12.472;2023-04-01T03:50:39;7.37;82.97
72380;SHT30;60354;47.798;12.472;2023-04-01T03:53:05;7.40;80.91
72380;SHT30;60354;47.798;12.472;2023-04-01T03:55:31;7.43;81.06
72380;SHT30;60354;47.798;12.472;2023-04-01T03:57:56;7.50;79.98
72380;SHT30;60354;47.798;12.472;2023-04-01T04:00:22;7.59;81.15
72380;SHT30;60354;47.798;12.472;2023-04-01T04:02:53;7.53;81.70
72380;SHT30;60354;47.798;12.472;2023-04-01T04:05:26;7.50;81.23
72380;SHT30;60354;47.798;12.472;2023-04-01T04:07:53;7.49;81.43
72380;SHT30;60354;47.798;12.472;2023-04-01T04:10:19;7.47;81.58
72380;SHT30;60354;47.798;12.472;2023-04-01T04:12:45;7.40;82.12
72380;SHT30;60354;47.798;12.472;2023-04-01T04:15:11;7.40;82.65
72380;SHT30;60354;47.798;12.472;2023-04-01T04:17:37;7.36;83.03
72380;SHT30;60354;47.798;12.472;2023-04-01T04:20:03;7.27;83.73
72380;SHT30;60354;47.798;12.472;2023-04-01T04:22:29;7.26;83.41
72380;SHT30;60354;47.798;12.472;2023-04-01T04:24:54;7.20;83.30
72380;SHT30;60354;47.798;12.472;2023-04-01T04:27:20;7.23;83.25
72380;SHT30;60354;47.798;12.472;2023-04-01T04:30:07;7.24;83.27
72380;SHT30;60354;47.798;12.472;2023-04-01T04:32:33;7.32;80.39
72380;SHT30;60354;47.798;12.472;2023-04-01T04:34:59;7.37;80.85
72380;SHT30;60354;47.798;12.472;2023-04-01T04:37:24;7.42;79.85
72380;SHT30;60354;47.798;12.472;2023-04-01T04:39:51;7.47;80.52
72380;SHT30;60354;47.798;12.472;2023-04-01T04:42:17;7.49;80.14
72380;SHT30;60354;47.798;12.472;2023-04-01T04:44:43;7.50;79.80
72380;SHT30;60354;47.798;12.472;2023-04-01T04:47:09;7.46;81.24
72380;SHT30;60354;47.798;12.472;2023-04-01T04:49:35;7.53;80.83
72380;SHT30;60354;47.798;12.472;2023-04-01T04:52:05;7.46;81.12
72380;SHT30;60354;47.798;12.472;2023-04-01T04:54:31;7.43;80.58
72380;SHT30;60354;47.798;12.472;2023-04-01T04:56:58;7.42;81.28
72380;SHT30;60354;47.798;12.472;2023-04-01T04:59:26;7.39;80.79
72380;SHT30;60354;47.798;12.472;2023-04-01T05:02:01;7.43;81.28
72380;SHT30;60354;47.798;12.472;2023-04-01T05:04:27;7.43;82.70
72380;SHT30;60354;47.798;12.472;2023-04-01T05:06:53;7.42;82.62
72380;SHT30;60354;47.798;12.472;2023-04-01T05:09:18;7.47;81.94
72380;SHT30;60354;47.798;12.472;2023-04-01T05:11:44;7.52;79.67
72380;SHT30;60354;47.798;12.472;2023-04-01T05:14:14;7.49;80.35
72380;SHT30;60354;47.798;12.472;2023-04-01T05:16:41;7.56;80.67
72380;SHT30;60354;47.798;12.472;2023-04-01T05:19:08;7.52;80.52
72380;SHT30;60354;47.798;12.472;2023-04-01T05:21:33;7.56;80.52
72380;SHT30;60354;47.798;12.472;2023-04-01T05:23:59;7.57;79.80
72380;SHT30;60354;47.798;12.472;2023-04-01T05:26:25;7.53;81.22
72380;SHT30;60354;47.798;12.472;2023-04-01T05:28:50;7.54;81.62
72380;SHT30;60354;47.798;12.472;2023-04-01T05:31:16;7.54;80.29
72380;SHT30;60354;47.798;12.472;2023-04-01T05:33:44;7.59;80.58
72380;SHT30;60354;47.798;12.472;2023-04-01T05:36:12;7.57;80.40
72380;SHT30;60354;47.798;12.472;2023-04-01T05:38:39;7.60;79.87
72380;SHT30;60354;47.798;12.472;2023-04-01T05:41:07;7.69;79.03
72380;SHT30;60354;47.798;12.472;2023-04-01T05:43:37;7.67;78.67
72380;SHT30;60354;47.798;12.472;2023-04-01T05:46:21;7.74;77.41
72380;SHT30;60354;47.798;12.472;2023-04-01T05:48:55;7.80;77.83
72380;SHT30;60354;47.798;12.472;2023-04-01T05:51:22;7.88;76.37
72380;SHT30;60354;47.798;12.472;2023-04-01T05:53:48;7.93;77.13
72380;SHT30;60354;47.798;12.472;2023-04-01T05:56:13;7.95;77.79
72380;SHT30;60354;47.798;12.472;2023-04-01T05:58:50;7.98;77.76
72380;SHT30;60354;47.798;12.472;2023-04-01T06:01:16;7.97;77.77
72380;SHT30;60354;47.798;12.472;2023-04-01T06:03:42;7.98;76.95
72380;SHT30;60354;47.798;12.472;2023-04-01T06:06:14;7.99;78.51
72380;SHT30;60354;47.798;12.472;2023-04-01T06:08:41;7.99;78.54
72380;SHT30;60354;47.798;12.472;2023-04-01T06:13:39;8.05;79.74
72380;SHT30;60354;47.798;12.472;2023-04-01T06:19:09;8.14;79.10
72380;SHT30;60354;47.798;12.472;2023-04-01T06:57:29;8.97;74.66
72380;SHT30;60354;47.798;12.472;2023-04-01T07:00:00;9.10;72.80
72380;SHT30;60354;47.798;12.472;2023-04-01T07:02:38;9.13;74.69
72380;SHT30;60354;47.798;12.472;2023-04-01T07:05:05;9.18;74.33
72380;SHT30;60354;47.798;12.472;2023-04-01T07:07:42;9.21;75.10
72380;SHT30;60354;47.798;12.472;2023-04-01T07:10:17;9.30;75.25
72380;SHT30;60354;47.798;12.472;2023-04-01T07:13:07;9.31;75.25
72380;SHT30;60354;47.798;12.472;2023-04-01T07:18:50;9.35;74.90
72380;SHT30;60354;47.798;12.472;2023-04-01T07:21:25;9.32;75.34
72380;SHT30;60354;47.798;12.472;2023-04-01T07:23:57;9.39;73.36
72380;SHT30;60354;47.798;12.472;2023-04-01T07:26:33;9.42;73.73
72380;SHT30;60354;47.798;12.472;2023-04-01T07:29:13;9.48;74.04
72380;SHT30;60354;47.798;12.472;2023-04-01T07:35:18;9.71;73.38
72380;SHT30;60354;47.798;12.472;2023-04-01T07:56:28;10.44;69.62
72380;SHT30;60354;47.798;12.472;2023-04-01T08:02:21;10.12;69.39
72380;SHT30;60354;47.798;12.472;2023-04-01T08:05:01;10.07;71.71
72380;SHT30;60354;47.798;12.472;2023-04-01T08:10:55;10.24;70.90
72380;SHT30;60354;47.798;12.472;2023-04-01T08:13:52;10.18;68.42
72380;SHT30;60354;47.798;12.472;2023-04-01T08:17:12;10.14;69.52
72380;SHT30;60354;47.798;12.472;2023-04-01T08:22:45;10.14;68.00
72380;SHT30;60354;47.798;12.472;2023-04-01T08:28:13;10.43;67.48
72380;SHT30;60354;47.798;12.472;2023-04-01T08:33:28;10.72;66.51
72380;SHT30;60354;47.798;12.472;2023-04-01T08:36:12;10.72;65.37
72380;SHT30;60354;47.798;12.472;2023-04-01T08:55:37;13.17;59.99
72380;SHT30;60354;47.798;12.472;2023-04-01T09:25:38;12.69;58.87
72380;SHT30;60354;47.798;12.472;2023-04-01T09:31:09;12.60;56.21
72380;SHT30;60354;47.798;12.472;2023-04-01T09:42:33;12.86;56.49
72380;SHT30;60354;47.798;12.472;2023-04-01T10:02:38;13.94;54.26
72380;SHT30;60354;47.798;12.472;2023-04-01T10:08:14;13.83;55.43
72380;SHT30;60354;47.798;12.472;2023-04-01T10:51:16;14.66;51.19
72380;SHT30;60354;47.798;12.472;2023-04-01T10:54:21;14.57;50.94
72380;SHT30;60354;47.798;12.472;2023-04-01T11:26:33;13.89;50.19
72380;SHT30;60354;47.798;12.472;2023-04-01T11:41:56;13.50;51.88
72380;SHT30;60354;47.798;12.472;2023-04-01T11:45:03;13.34;52.92
72380;SHT30;60354;47.798;12.472;2023-04-01T11:47:42;13.16;57.20
72380;SHT30;60354;47.798;12.472;2023-04-01T11:56:02;12.90;58.76
72380;SHT30;60354;47.798;12.472;2023-04-01T12:02:03;12.49;60.66
72380;SHT30;60354;47.798;12.472;2023-04-01T12:09:03;12.46;67.54
72380;SHT30;60354;47.798;12.472;2023-04-01T12:11:38;12.45;66.29
72380;SHT30;60354;47.798;12.472;2023-04-01T12:19:51;12.29;62.78
72380;SHT30;60354;47.798;12.472;2023-04-01T12:22:41;12.38;64.14
72380;SHT30;60354;47.798;12.472;2023-04-01T12:25:18;12.39;63.64
72380;SHT30;60354;47.798;12.472;2023-04-01T13:01:19;11.80;66.63
72380;SHT30;60354;47.798;12.472;2023-04-01T13:10:01;11.30;68.09
72380;SHT30;60354;47.798;12.472;2023-04-01T13:18:39;11.57;64.95
72380;SHT30;60354;47.798;12.472;2023-04-01T13:21:20;11.62;63.15
72380;SHT30;60354;47.798;12.472;2023-04-01T13:29:36;11.71;64.66
72380;SHT30;60354;47.798;12.472;2023-04-01T13:32:32;11.50;65.48
72380;SHT30;60354;47.798;12.472;2023-04-01T13:40:28;10.76;68.26
72380;SHT30;60354;47.798;12.472;2023-04-01T13:43:02;10.67;68.75
72380;SHT30;60354;47.798;12.472;2023-04-01T13:48:23;10.58;68.45
72380;SHT30;60354;47.798;12.472;2023-04-01T14:04:49;10.41;73.20
72380;SHT30;60354;47.798;12.472;2023-04-01T14:10:30;10.40;72.70
72380;SHT30;60354;47.798;12.472;2023-04-01T14:13:07;10.38;73.54
72380;SHT30;60354;47.798;12.472;2023-04-01T14:16:03;10.51;73.51
72380;SHT30;60354;47.798;12.472;2023-04-01T14:18:33;10.61;74.85
72380;SHT30;60354;47.798;12.472;2023-04-01T14:41:25;10.89;67.59
72380;SHT30;60354;47.798;12.472;2023-04-01T14:49:30;10.76;67.00
72380;SHT30;60354;47.798;12.472;2023-04-01T14:52:14;10.63;67.37
72380;SHT30;60354;47.798;12.472;2023-04-01T14:54:43;10.55;67.77
72380;SHT30;60354;47.798;12.472;2023-04-01T15:02:54;10.50;68.96
72380;SHT30;60354;47.798;12.472;2023-04-01T15:05:39;10.44;69.46
72380;SHT30;60354;47.798;12.472;2023-04-01T15:16:55;10.07;70.33
72380;SHT30;60354;47.798;12.472;2023-04-01T15:33:21;9.75;72.40
72380;SHT30;60354;47.798;12.472;2023-04-01T15:55:51;9.13;75.08
72380;SHT30;60354;47.798;12.472;2023-04-01T16:09:37;8.86;79.43
72380;SHT30;60354;47.798;12.472;2023-04-01T16:14:39;8.81;77.91
72380;SHT30;60354;47.798;12.472;2023-04-01T16:20:02;9.07;74.92
72380;SHT30;60354;47.798;12.472;2023-04-01T16:22:40;9.11;74.56
72380;SHT30;60354;47.798;12.472;2023-04-01T16:25:32;9.11;74.25
72380;SHT30;60354;47.798;12.472;2023-04-01T16:31:09;9.18;75.22
72380;SHT30;60354;47.798;12.472;2023-04-01T16:33:47;9.24;74.35
72380;SHT30;60354;47.798;12.472;2023-04-01T16:41:53;9.36;70.88
72380;SHT30;60354;47.798;12.472;2023-04-01T16:44:25;9.45;72.21
72380;SHT30;60354;47.798;12.472;2023-04-01T16:47:08;9.49;71.69
72380;SHT30;60354;47.798;12.472;2023-04-01T16:49:53;9.54;71.23
72380;SHT30;60354;47.798;12.472;2023-04-01T16:52:40;9.54;69.54
72380;SHT30;60354;47.798;12.472;2023-04-01T16:55:20;9.49;71.00
72380;SHT30;60354;47.798;12.472;2023-04-01T16:57:51;9.51;71.08
72380;SHT30;60354;47.798;12.472;2023-04-01T17:00:28;9.46;71.09
72380;SHT30;60354;47.798;12.472;2023-04-01T17:06:15;9.48;68.68
72380;SHT30;60354;47.798;12.472;2023-04-01T17:09:25;9.42;70.82
72380;SHT30;60354;47.798;12.472;2023-04-01T17:11:59;9.42;69.31
72380;SHT30;60354;47.798;12.472;2023-04-01T17:25:20;9.46;67.65
72380;SHT30;60354;47.798;12.472;2023-04-01T17:42:46;9.38;67.37
72380;SHT30;60354;47.798;12.472;2023-04-01T17:45:21;9.46;65.65
72380;SHT30;60354;47.798;12.472;2023-04-01T17:48:55;9.44;67.04
72380;SHT30;60354;47.798;12.472;2023-04-01T17:53:22;9.44;66.09
72380;SHT30;60354;47.798;12.472;2023-04-01T18:09:00;9.45;66.66
72380;SHT30;60354;47.798;12.472;2023-04-01T18:17:25;9.42;65.69
72380;SHT30;60354;47.798;12.472;2023-04-01T18:19:55;9.45;65.42
72380;SHT30;60354;47.798;12.472;2023-04-01T18:27:37;9.44;65.73
72380;SHT30;60354;47.798;12.472;2023-04-01T18:30:28;9.44;65.62
72380;SHT30;60354;47.798;12.472;2023-04-01T18:33:06;9.49;65.06
72380;SHT30;60354;47.798;12.472;2023-04-01T18:36:08;9.52;65.07
72380;SHT30;60354;47.798;12.472;2023-04-01T18:38:38;9.49;66.39
72380;SHT30;60354;47.798;12.472;2023-04-01T18:41:28;9.44;65.38
72380;SHT30;60354;47.798;12.472;2023-04-01T18:44:07;9.41;65.75
72380;SHT30;60354;47.798;12.472;2023-04-01T18:47:18;9.44;64.95
72380;SHT30;60354;47.798;12.472;2023-04-01T18:52:13;9.39;65.34
72380;SHT30;60354;47.798;12.472;2023-04-01T18:57:18;9.51;64.69
72380;SHT30;60354;47.798;12.472;2023-04-01T18:59:48;9.54;64.95
72380;SHT30;60354;47.798;12.472;2023-04-01T19:02:38;9.49;65.08
72380;SHT30;60354;47.798;12.472;2023-04-01T19:07:54;9.45;65.80
72380;SHT30;60354;47.798;12.472;2023-04-01T19:21:42;9.32;66.71
72380;SHT30;60354;47.798;12.472;2023-04-01T19:27:00;9.36;66.11
72380;SHT30;60354;47.798;12.472;2023-04-01T19:57:16;9.25;67.77
72380;SHT30;60354;47.798;12.472;2023-04-01T20:10:56;9.08;71.49
72380;SHT30;60354;47.798;12.472;2023-04-01T20:13:44;9.04;71.30
72380;SHT30;60354;47.798;12.472;2023-04-01T20:16:12;9.04;69.29
72380;SHT30;60354;47.798;12.472;2023-04-01T20:18:56;9.10;67.21
72380;SHT30;60354;47.798;12.472;2023-04-01T20:21:34;9.17;67.71
72380;SHT30;60354;47.798;12.472;2023-04-01T20:24:07;9.21;67.49
72380;SHT30;60354;47.798;12.472;2023-04-01T20:26:47;9.25;67.22
72380;SHT30;60354;47.798;12.472;2023-04-01T20:36:03;9.28;66.92
72380;SHT30;60354;47.798;12.472;2023-04-01T20:44:10;9.30;66.31
72380;SHT30;60354;47.798;12.472;2023-04-01T20:46:45;9.28;66.93
72380;SHT30;60354;47.798;12.472;2023-04-01T21:03:01;9.38;63.71
72380;SHT30;60354;47.798;12.472;2023-04-01T21:13:58;9.30;64.57
72380;SHT30;60354;47.798;12.472;2023-04-01T21:30:25;9.41;63.07
72380;SHT30;60354;47.798;12.472;2023-04-01T21:33:25;9.45;63.33
72380;SHT30;60354;47.798;12.472;2023-04-01T21:58:46;9.34;65.06
72380;SHT30;60354;47.798;12.472;2023-04-01T22:04:27;9.36;64.13
72380;SHT30;60354;47.798;12.472;2023-04-01T22:07:04;9.36;64.14
72380;SHT30;60354;47.798;12.472;2023-04-01T22:09:42;9.36;64.62
72380;SHT30;60354;47.798;12.472;2023-04-01T22:17:45;9.28;64.74
72380;SHT30;60354;47.798;12.472;2023-04-01T22:20:26;9.32;64.22
72380;SHT30;60354;47.798;12.472;2023-04-01T22:26:23;9.28;65.31
72380;SHT30;60354;47.798;12.472;2023-04-01T22:31:25;9.28;65.38
72380;SHT30;60354;47.798;12.472;2023-04-01T22:34:02;9.31;64.94
72380;SHT30;60354;47.798;12.472;2023-04-01T22:44:47;9.11;69.38
72380;SHT30;60354;47.798;12.472;2023-04-01T22:52:45;9.05;66.67
72380;SHT30;60354;47.798;12.472;2023-04-01T22:55:16;9.05;66.07
72380;SHT30;60354;47.798;12.472;2023-04-01T22:58:07;9.10;67.19
72380;SHT30;60354;47.798;12.472;2023-04-01T23:03:21;9.05;68.20
72380;SHT30;60354;47.798;12.472;2023-04-01T23:05:53;9.04;68.19
72380;SHT30;60354;47.798;12.472;2023-04-01T23:11:22;9.04;68.80
72380;SHT30;60354;47.798;12.472;2023-04-01T23:14:14;9.13;67.19
72380;SHT30;60354;47.798;12.472;2023-04-01T23:16:48;9.05;67.23
72380;SHT30;60354;47.798;12.472;2023-04-01T23:22:02;9.05;66.85
72380;SHT30;60354;47.798;12.472;2023-04-01T23:27:43;8.99;68.69
72380;SHT30;60354;47.798;12.472;2023-04-01T23:30:50;9.00;70.89
72380;SHT30;60354;47.798;12.472;2023-04-01T23:35:59;8.94;69.07
72380;SHT30;60354;47.798;12.472;2023-04-01T23:38:35;8.91;68.62
72380;SHT30;60354;47.798;12.472;2023-04-01T23:41:02;8.91;71.91
72380;SHT30;60354;47.798;12.472;2023-04-01T23:43:31;8.86;72.99
72380;SHT30;60354;47.798;12.472;2023-04-01T23:46:00;8.76;73.64
72380;SHT30;60354;47.798;12.472;2023-04-01T23:48:32;8.74;72.99
72380;SHT30;60354;47.798;12.472;2023-04-01T23:50:58;8.69;73.32
72380;SHT30;60354;47.798;12.472;2023-04-01T23:53:26;8.70;73.33
72380;SHT30;60354;47.798;12.472;2023-04-01T23:55:54;8.73;73.10
72380;SHT30;60354;47.798;12.472;2023-04-01T23:58:38;8.64;72.77
